createdAt,value
2022-11-30T00:00:41.177Z,98.70
2022-11-30T00:03:08.524Z,98.90
2022-11-30T00:05:35.257Z,98.70
2022-11-30T00:08:01.958Z,98.90
2022-11-30T00:10:28.756Z,98.60
2022-11-30T00:12:55.478Z,97.90
2022-11-30T00:15:22.358Z,98.30
2022-11-30T00:17:49.005Z,98.80
2022-11-30T00:20:16.209Z,98.10
2022-11-30T00:22:43.236Z,97.90
2022-11-30T00:25:09.938Z,97.80
2022-11-30T00:27:36.612Z,97.80
2022-11-30T00:30:03.408Z,97.50
2022-11-30T00:32:30.155Z,97.50
2022-11-30T00:34:57.341Z,98.30
2022-11-30T00:37:24.119Z,98.20
2022-11-30T00:39:50.775Z,98.40
2022-11-30T00:42:17.455Z,99.10
2022-11-30T00:44:44.323Z,99.10
2022-11-30T00:47:11.494Z,98.40
2022-11-30T00:49:38.166Z,97.80
2022-11-30T00:52:05.343Z,98.00
2022-11-30T00:54:32.031Z,98.00
2022-11-30T00:56:58.711Z,98.50
2022-11-30T00:59:25.385Z,99.10
2022-11-30T01:01:54.436Z,98.10
2022-11-30T01:04:21.326Z,98.50
2022-11-30T01:06:48.001Z,98.50
2022-11-30T01:09:14.620Z,98.50
2022-11-30T01:11:41.335Z,98.00
2022-11-30T01:14:07.979Z,98.80
2022-11-30T01:16:34.629Z,98.40
2022-11-30T01:19:01.326Z,98.50
2022-11-30T01:21:29.164Z,98.50
2022-11-30T01:23:56.517Z,98.70
2022-11-30T01:26:23.425Z,98.90
2022-11-30T01:28:51.765Z,98.90
2022-11-30T01:31:19.441Z,99.00
2022-11-30T01:33:54.148Z,99.80
2022-11-30T01:36:25.898Z,99.40
2022-11-30T01:38:57.704Z,99.20
2022-11-30T01:41:30.827Z,99.10
2022-11-30T01:44:20.252Z,99.50
2022-11-30T01:47:09.162Z,98.90
2022-11-30T01:50:08.594Z,99.00
2022-11-30T01:52:38.771Z,99.10
2022-11-30T01:55:25.471Z,99.30
2022-11-30T01:57:55.133Z,99.40
2022-11-30T02:00:22.091Z,99.10
2022-11-30T02:03:19.933Z,99.10
2022-11-30T02:05:46.745Z,98.30
2022-11-30T02:08:13.859Z,98.80
2022-11-30T02:10:43.697Z,98.80
2022-11-30T02:13:30.222Z,99.00
2022-11-30T02:16:17.488Z,99.30
2022-11-30T02:19:18.580Z,98.70
2022-11-30T02:21:55.515Z,99.00
2022-11-30T02:24:28.123Z,98.90
2022-11-30T02:27:05.331Z,99.20
2022-11-30T02:29:36.184Z,98.90
2022-11-30T02:32:05.629Z,98.60
2022-11-30T02:34:35.403Z,98.60
2022-11-30T02:37:03.294Z,99.00
2022-11-30T02:39:29.942Z,98.20
2022-11-30T02:41:56.569Z,98.20
2022-11-30T02:44:24.339Z,98.30
2022-11-30T02:47:24.329Z,98.50
2022-11-30T02:49:56.369Z,98.50
2022-11-30T02:52:26.548Z,98.80
2022-11-30T02:54:54.207Z,98.10
2022-11-30T02:57:20.846Z,98.40
2022-11-30T02:59:47.513Z,98.60
2022-11-30T03:02:14.110Z,99.10
2022-11-30T03:04:40.699Z,98.50
2022-11-30T03:07:07.285Z,98.80
2022-11-30T03:09:33.898Z,98.70
2022-11-30T03:12:01.069Z,99.10
2022-11-30T03:14:27.645Z,97.80
2022-11-30T03:16:54.243Z,98.30
2022-11-30T03:19:20.811Z,98.30
2022-11-30T03:21:47.432Z,98.50
2022-11-30T03:24:14.095Z,98.90
2022-11-30T03:26:40.689Z,98.10
2022-11-30T03:29:07.378Z,98.70
2022-11-30T03:31:34.042Z,98.20
2022-11-30T03:34:00.743Z,98.60
2022-11-30T03:36:27.351Z,98.60
2022-11-30T03:38:53.989Z,99.00
2022-11-30T03:41:20.587Z,98.70
2022-11-30T03:43:47.579Z,99.20
2022-11-30T03:46:14.701Z,98.20
2022-11-30T03:48:41.457Z,98.10
2022-11-30T03:51:08.798Z,98.70
2022-11-30T03:53:35.444Z,99.10
2022-11-30T03:56:06.014Z,98.90
2022-11-30T03:58:33.411Z,98.40
2022-11-30T04:01:11.314Z,98.60
2022-11-30T04:03:38.766Z,98.70
2022-11-30T04:06:06.753Z,98.50
2022-11-30T04:08:33.410Z,97.50
2022-11-30T04:11:01.241Z,97.80
2022-11-30T04:13:28.778Z,98.40
2022-11-30T04:15:56.130Z,98.20
2022-11-30T04:18:24.108Z,98.60
2022-11-30T04:20:52.316Z,98.40
2022-11-30T04:23:19.252Z,98.70
2022-11-30T04:25:46.208Z,99.20
2022-11-30T04:28:12.803Z,99.00
2022-11-30T04:30:39.748Z,98.90
2022-11-30T04:33:06.847Z,99.30
2022-11-30T04:35:33.699Z,98.70
2022-11-30T04:38:01.096Z,99.20
2022-11-30T04:40:27.672Z,99.20
2022-11-30T04:42:54.392Z,99.40
2022-11-30T04:45:21.104Z,99.10
2022-11-30T04:47:47.732Z,99.90
2022-11-30T04:50:14.311Z,99.30
2022-11-30T04:52:40.951Z,99.20
2022-11-30T04:55:08.010Z,98.90
2022-11-30T04:57:34.595Z,99.10
2022-11-30T05:00:01.178Z,99.20
2022-11-30T05:02:30.195Z,99.60
2022-11-30T05:04:56.902Z,99.50
2022-11-30T05:07:23.750Z,98.70
2022-11-30T05:09:50.349Z,98.90
2022-11-30T05:12:17.059Z,99.10
2022-11-30T05:14:43.814Z,99.20
2022-11-30T05:17:10.506Z,99.60
2022-11-30T05:19:37.100Z,99.60
2022-11-30T05:22:03.706Z,99.30
2022-11-30T05:24:30.316Z,99.00
2022-11-30T05:26:56.980Z,99.10
2022-11-30T05:29:23.575Z,99.10
2022-11-30T05:31:50.258Z,98.80
2022-11-30T05:34:16.910Z,99.20
2022-11-30T05:36:43.694Z,98.80
2022-11-30T05:39:10.369Z,98.60
2022-11-30T05:41:37.240Z,98.90
2022-11-30T05:44:04.532Z,98.70
2022-11-30T05:46:31.194Z,98.80
2022-11-30T05:48:57.895Z,98.90
2022-11-30T05:51:24.575Z,99.20
2022-11-30T05:53:51.191Z,98.40
2022-11-30T05:56:20.447Z,98.30
2022-11-30T05:58:47.923Z,98.50
2022-11-30T06:01:23.886Z,98.60
2022-11-30T06:03:50.950Z,98.80
2022-11-30T06:06:18.502Z,98.80
2022-11-30T06:08:46.690Z,98.80
2022-11-30T06:11:13.848Z,98.70
2022-11-30T06:13:40.738Z,98.40
2022-11-30T06:16:08.167Z,98.70
2022-11-30T06:18:35.247Z,98.50
2022-11-30T06:21:06.725Z,99.10
2022-11-30T06:23:33.847Z,99.20
2022-11-30T06:26:05.141Z,98.20
2022-11-30T06:28:31.917Z,98.40
2022-11-30T06:31:03.990Z,98.00
2022-11-30T06:33:30.749Z,98.30
2022-11-30T06:35:57.851Z,98.40
2022-11-30T06:38:26.491Z,98.50
2022-11-30T06:40:56.461Z,98.60
2022-11-30T06:43:23.053Z,99.30
2022-11-30T06:45:49.771Z,98.50
2022-11-30T06:48:17.720Z,98.90
2022-11-30T06:50:49.722Z,98.90
2022-11-30T06:53:16.851Z,99.00
2022-11-30T06:55:43.546Z,98.70
2022-11-30T06:58:11.084Z,99.00
2022-11-30T07:00:38.492Z,98.90
2022-11-30T07:03:05.926Z,98.60
2022-11-30T07:05:41.427Z,98.30
2022-11-30T07:08:08.075Z,98.00
2022-11-30T07:10:36.383Z,98.30
2022-11-30T07:13:03.204Z,98.40
2022-11-30T07:15:29.952Z,97.90
2022-11-30T07:17:57.014Z,97.90
2022-11-30T07:20:23.724Z,99.10
2022-11-30T07:22:50.497Z,99.00
2022-11-30T07:25:35.839Z,99.70
2022-11-30T07:28:02.536Z,99.70
2022-11-30T07:30:31.294Z,98.90
2022-11-30T07:32:57.971Z,99.70
2022-11-30T07:35:24.623Z,98.60
2022-11-30T07:37:51.298Z,99.10
2022-11-30T07:40:18.064Z,99.60
2022-11-30T07:42:44.703Z,99.90
2022-11-30T07:45:11.480Z,99.60
2022-11-30T07:47:38.244Z,99.90
2022-11-30T07:50:05.386Z,99.90
2022-11-30T07:52:32.101Z,99.50
2022-11-30T07:54:58.822Z,99.80
2022-11-30T07:57:25.593Z,99.80
2022-11-30T07:59:52.428Z,99.50
2022-11-30T08:02:19.627Z,99.10
2022-11-30T08:04:47.096Z,99.20
2022-11-30T08:07:14.713Z,99.10
2022-11-30T08:09:41.474Z,99.50
2022-11-30T08:12:08.285Z,99.40
2022-11-30T08:14:56.508Z,99.30
2022-11-30T08:17:21.866Z,99.90
2022-11-30T08:19:48.555Z,99.90
2022-11-30T08:22:15.253Z,99.90
2022-11-30T08:24:41.953Z,99.90
2022-11-30T08:27:08.740Z,99.90
2022-11-30T08:29:35.449Z,99.70
2022-11-30T08:32:02.185Z,99.90
2022-11-30T08:34:28.987Z,99.90
2022-11-30T08:36:55.714Z,99.90
2022-11-30T08:39:22.455Z,99.90
2022-11-30T08:41:49.243Z,99.90
2022-11-30T08:44:15.948Z,99.90
2022-11-30T08:46:51.654Z,99.90
2022-11-30T08:49:22.964Z,99.90
2022-11-30T08:54:39.487Z,99.90
2022-11-30T08:57:06.672Z,99.90
2022-11-30T08:59:33.466Z,99.90
2022-11-30T09:02:00.296Z,99.90
2022-11-30T09:04:27.334Z,99.90
2022-11-30T09:06:59.158Z,99.90
2022-11-30T09:09:26.204Z,99.90
2022-11-30T09:11:53.062Z,99.90
2022-11-30T09:14:19.777Z,99.90
2022-11-30T09:16:46.500Z,99.90
2022-11-30T09:19:13.281Z,99.90
2022-11-30T09:21:40.169Z,99.90
2022-11-30T09:24:07.158Z,99.90
2022-11-30T09:26:33.824Z,99.90
2022-11-30T09:29:00.509Z,99.90
2022-11-30T09:31:27.474Z,99.90
2022-11-30T09:33:56.685Z,99.90
2022-11-30T09:36:27.518Z,99.90
2022-11-30T09:38:55.188Z,99.90
2022-11-30T09:41:33.811Z,99.90
2022-11-30T09:44:09.958Z,99.90
2022-11-30T09:46:44.223Z,99.90
2022-11-30T09:49:23.818Z,99.50
2022-11-30T09:51:54.941Z,98.80
2022-11-30T09:54:36.062Z,99.50
2022-11-30T09:57:26.605Z,99.60
2022-11-30T10:00:33.342Z,99.20
2022-11-30T10:03:04.131Z,99.20
2022-11-30T10:05:57.982Z,99.50
2022-11-30T10:08:50.881Z,99.20
2022-11-30T10:11:50.487Z,99.80
2022-11-30T10:14:20.138Z,99.10
2022-11-30T10:16:49.924Z,99.00
2022-11-30T10:19:40.967Z,98.90
2022-11-30T10:22:27.690Z,98.90
2022-11-30T10:25:08.702Z,99.60
2022-11-30T10:27:56.085Z,99.60
2022-11-30T10:30:24.744Z,98.00
2022-11-30T10:32:54.279Z,98.20
2022-11-30T10:35:24.086Z,98.00
2022-11-30T10:37:52.167Z,98.10
2022-11-30T10:40:45.204Z,98.40
2022-11-30T10:43:40.127Z,98.60
2022-11-30T10:46:11.313Z,98.20
2022-11-30T10:48:44.194Z,98.50
2022-11-30T10:51:11.804Z,98.10
2022-11-30T10:53:38.515Z,97.90
2022-11-30T10:56:12.627Z,97.60
2022-11-30T10:59:03.884Z,97.20
2022-11-30T11:01:36.675Z,97.20
2022-11-30T11:04:12.625Z,97.20
2022-11-30T11:07:07.569Z,96.90
2022-11-30T11:09:51.109Z,97.10
2022-11-30T11:12:28.433Z,96.90
2022-11-30T11:15:08.961Z,97.20
2022-11-30T11:17:35.750Z,96.10
2022-11-30T11:20:02.402Z,96.70
2022-11-30T11:22:31.350Z,96.20
2022-11-30T11:25:20.567Z,96.10
2022-11-30T11:27:54.897Z,96.20
2022-11-30T11:30:28.755Z,95.70
2022-11-30T11:33:23.774Z,96.20
2022-11-30T11:36:14.051Z,96.30
2022-11-30T11:38:46.210Z,96.80
2022-11-30T11:41:23.631Z,96.00
2022-11-30T11:44:02.456Z,95.90
2022-11-30T11:46:31.412Z,96.50
2022-11-30T11:48:59.527Z,95.80
2022-11-30T11:51:37.587Z,95.50
2022-11-30T11:54:42.550Z,95.70
2022-11-30T11:57:21.191Z,95.60
2022-11-30T12:00:04.715Z,95.20
2022-11-30T12:02:39.478Z,94.90
2022-11-30T12:05:12.329Z,95.40
2022-11-30T12:08:04.527Z,95.80
2022-11-30T12:10:52.579Z,95.80
2022-11-30T12:13:33.577Z,96.30
2022-11-30T12:16:14.419Z,95.90
2022-11-30T12:19:05.620Z,95.80
2022-11-30T12:21:52.114Z,96.30
2022-11-30T12:25:15.676Z,95.30
2022-11-30T12:28:19.512Z,94.90
2022-11-30T12:30:49.064Z,95.00
2022-11-30T12:33:35.746Z,95.50
2022-11-30T12:36:27.846Z,95.80
2022-11-30T12:38:58.885Z,95.60
2022-11-30T12:41:49.944Z,94.50
2022-11-30T12:44:28.670Z,94.40
2022-11-30T12:47:21.049Z,93.90
2022-11-30T12:49:59.049Z,94.10
2022-11-30T12:52:32.707Z,93.00
2022-11-30T12:55:37.731Z,93.50
2022-11-30T12:58:19.664Z,92.50
2022-11-30T13:01:02.331Z,92.10
2022-11-30T13:03:40.325Z,90.70
2022-11-30T13:06:17.599Z,92.10
2022-11-30T13:09:02.945Z,91.70
2022-11-30T13:11:39.303Z,90.70
2022-11-30T13:14:16.519Z,90.20
2022-11-30T13:16:43.892Z,91.50
2022-11-30T13:19:29.553Z,91.30
2022-11-30T13:22:02.810Z,91.50
2022-11-30T13:24:45.827Z,90.60
2022-11-30T13:27:23.164Z,91.20
2022-11-30T13:29:56.029Z,89.90
2022-11-30T13:32:56.060Z,91.30
2022-11-30T13:35:28.234Z,90.80
2022-11-30T13:38:36.344Z,89.90
2022-11-30T13:41:05.826Z,90.10
2022-11-30T13:43:41.805Z,90.00
2022-11-30T13:46:15.275Z,90.20
2022-11-30T13:48:43.902Z,90.30
2022-11-30T13:51:11.330Z,90.30
2022-11-30T13:53:39.710Z,90.30
2022-11-30T13:56:32.777Z,91.10
2022-11-30T13:59:24.154Z,91.30
2022-11-30T14:01:52.284Z,90.50
2022-11-30T14:04:18.984Z,90.10
2022-11-30T14:06:55.469Z,90.20
2022-11-30T14:09:40.427Z,90.30
2022-11-30T14:12:36.688Z,90.80
2022-11-30T14:15:31.536Z,90.80
2022-11-30T14:17:58.882Z,90.60
2022-11-30T14:20:32.051Z,90.70
2022-11-30T14:23:13.272Z,91.30
2022-11-30T14:25:43.295Z,90.40
2022-11-30T14:28:16.086Z,90.20
2022-11-30T14:30:43.242Z,89.60
2022-11-30T14:33:24.522Z,91.10
2022-11-30T14:35:55.275Z,90.60
2022-11-30T14:38:28.243Z,90.40
2022-11-30T14:40:55.070Z,91.30
2022-11-30T14:43:21.992Z,91.60
2022-11-30T14:46:05.055Z,91.70
2022-11-30T14:48:33.687Z,91.70
2022-11-30T14:51:03.478Z,91.40
2022-11-30T14:53:44.311Z,91.90
2022-11-30T14:56:29.536Z,91.50
2022-11-30T14:59:06.611Z,91.30
2022-11-30T15:01:33.654Z,91.40
2022-11-30T15:04:11.863Z,91.50
2022-11-30T15:06:39.662Z,90.60
2022-11-30T15:09:14.681Z,90.80
2022-11-30T15:11:42.890Z,90.10
2022-11-30T15:14:10.874Z,91.10
2022-11-30T15:16:38.742Z,90.50
2022-11-30T15:19:27.850Z,90.90
2022-11-30T15:21:55.950Z,90.20
2022-11-30T15:24:23.082Z,90.80
2022-11-30T15:27:06.970Z,90.60
2022-11-30T15:29:39.611Z,90.00
2022-11-30T15:32:15.972Z,90.40
2022-11-30T15:34:53.615Z,90.20
2022-11-30T15:37:39.169Z,89.90
2022-11-30T15:40:08.310Z,90.80
2022-11-30T15:42:40.306Z,90.00
2022-11-30T15:45:21.684Z,89.20
2022-11-30T15:47:48.901Z,90.50
2022-11-30T15:50:30.999Z,90.70
2022-11-30T15:53:28.530Z,91.00
2022-11-30T15:56:05.240Z,90.50
2022-11-30T15:58:33.490Z,91.40
2022-11-30T16:01:05.007Z,92.60
2022-11-30T16:03:33.737Z,93.00
2022-11-30T16:06:02.678Z,92.90
2022-11-30T16:08:29.802Z,93.60
2022-11-30T16:10:56.615Z,94.30
2022-11-30T16:13:23.752Z,93.80
2022-11-30T16:15:51.782Z,93.90
2022-11-30T16:18:26.611Z,94.10
2022-11-30T16:20:58.184Z,95.10
2022-11-30T16:23:25.985Z,94.80
2022-11-30T16:25:52.858Z,95.10
2022-11-30T16:28:21.015Z,95.40
2022-11-30T16:30:48.275Z,94.30
2022-11-30T16:33:20.304Z,94.40
2022-11-30T16:35:55.935Z,94.90
2022-11-30T16:38:23.373Z,94.40
2022-11-30T16:40:50.381Z,94.60
2022-11-30T16:43:18.521Z,93.90
2022-11-30T16:45:46.603Z,93.50
2022-11-30T16:48:16.547Z,94.20
2022-11-30T16:50:44.615Z,93.10
2022-11-30T16:53:16.234Z,93.20
2022-11-30T16:55:43.341Z,93.90
2022-11-30T16:58:10.194Z,93.40
2022-11-30T17:00:39.754Z,94.40
2022-11-30T17:03:26.803Z,95.00
2022-11-30T17:05:53.431Z,93.70
2022-11-30T17:08:20.291Z,95.30
2022-11-30T17:10:51.267Z,94.60
2022-11-30T17:13:18.156Z,96.30
2022-11-30T17:15:45.005Z,95.40
2022-11-30T17:18:11.800Z,96.10
2022-11-30T17:20:38.764Z,96.60
2022-11-30T17:23:06.360Z,96.30
2022-11-30T17:25:33.922Z,95.90
2022-11-30T17:28:00.685Z,95.30
2022-11-30T17:30:27.870Z,96.40
2022-11-30T17:32:54.878Z,96.70
2022-11-30T17:35:21.624Z,96.10
2022-11-30T17:37:48.341Z,95.70
2022-11-30T17:40:17.802Z,96.70
2022-11-30T17:42:45.067Z,95.60
2022-11-30T17:45:12.142Z,95.70
2022-11-30T17:47:38.838Z,97.10
2022-11-30T17:50:07.420Z,96.70
2022-11-30T17:52:34.105Z,97.00
2022-11-30T17:55:00.763Z,97.50
2022-11-30T17:57:27.506Z,97.30
2022-11-30T17:59:54.360Z,96.60
2022-11-30T18:02:21.304Z,97.70
2022-11-30T18:04:48.399Z,97.20
2022-11-30T18:07:15.586Z,96.50
2022-11-30T18:09:43.018Z,96.90
2022-11-30T18:12:10.659Z,97.10
2022-11-30T18:14:37.385Z,97.40
2022-11-30T18:17:04.281Z,97.60
2022-11-30T18:19:31.003Z,97.00
2022-11-30T18:21:57.654Z,97.20
2022-11-30T18:24:25.733Z,97.50
2022-11-30T18:26:53.023Z,97.60
2022-11-30T18:29:19.808Z,97.60
2022-11-30T18:31:48.529Z,97.40
2022-11-30T18:34:15.628Z,96.80
2022-11-30T18:36:42.809Z,96.80
2022-11-30T18:39:10.352Z,97.60
2022-11-30T18:41:38.436Z,97.20
2022-11-30T18:44:06.282Z,97.50
2022-11-30T18:46:33.635Z,97.40
2022-11-30T18:49:02.136Z,97.10
2022-11-30T18:51:30.712Z,97.70
2022-11-30T18:54:02.537Z,97.70
2022-11-30T18:56:32.063Z,96.80
2022-11-30T18:59:04.556Z,97.20
2022-11-30T19:01:33.012Z,97.00
2022-11-30T19:04:05.536Z,97.30
2022-11-30T19:06:35.805Z,96.50
2022-11-30T19:09:08.554Z,96.50
2022-11-30T19:11:39.603Z,95.80
2022-11-30T19:14:13.440Z,96.60
2022-11-30T19:16:41.130Z,95.20
2022-11-30T19:19:12.783Z,95.60
2022-11-30T19:21:40.424Z,95.60
2022-11-30T19:24:49.108Z,96.20
2022-11-30T19:27:16.983Z,96.60
2022-11-30T19:29:51.352Z,95.80
2022-11-30T19:32:19.106Z,96.20
2022-11-30T19:34:47.007Z,96.50
2022-11-30T19:37:14.720Z,96.40
2022-11-30T19:39:42.154Z,95.90
2022-11-30T19:42:11.266Z,95.70
2022-11-30T19:44:38.707Z,95.70
2022-11-30T19:47:06.447Z,95.10
2022-11-30T19:49:34.095Z,94.50
2022-11-30T19:52:00.841Z,94.50
2022-11-30T19:54:28.360Z,95.70
2022-11-30T19:56:57.980Z,94.70
2022-11-30T19:59:25.292Z,95.20
2022-11-30T20:01:53.056Z,94.80
2022-11-30T20:04:20.311Z,95.50
2022-11-30T20:06:47.360Z,95.80
2022-11-30T20:09:24.712Z,95.20
2022-11-30T20:11:55.062Z,95.10
2022-11-30T20:14:23.204Z,94.90
2022-11-30T20:19:55.601Z,94.60
2022-11-30T20:22:23.500Z,94.70
2022-11-30T20:24:51.383Z,95.00
2022-11-30T20:27:28.054Z,94.70
2022-11-30T20:29:55.842Z,94.10
2022-11-30T20:32:23.360Z,94.20
2022-11-30T20:34:50.811Z,94.40
2022-11-30T20:37:19.594Z,93.30
2022-11-30T20:39:47.664Z,92.60
2022-11-30T20:42:14.998Z,92.80
2022-11-30T20:44:42.475Z,92.70
2022-11-30T20:47:11.877Z,93.10
2022-11-30T20:49:39.344Z,93.10
2022-11-30T20:52:07.384Z,92.40
2022-11-30T20:54:37.417Z,92.80
2022-11-30T20:57:05.897Z,91.50
2022-11-30T20:59:33.523Z,91.40
2022-11-30T21:02:00.746Z,91.90
2022-11-30T21:04:27.791Z,91.70
2022-11-30T21:06:54.862Z,92.90
2022-11-30T21:09:21.645Z,91.80
2022-11-30T21:11:49.165Z,91.00
2022-11-30T21:14:17.970Z,90.70
2022-11-30T21:16:44.877Z,90.40
2022-11-30T21:19:15.176Z,91.00
2022-11-30T21:21:42.073Z,90.40
2022-11-30T21:24:11.630Z,91.10
2022-11-30T21:26:40.632Z,90.80
2022-11-30T21:29:11.462Z,91.00
2022-11-30T21:31:38.543Z,90.10
2022-11-30T21:34:05.745Z,90.30
2022-11-30T21:36:32.973Z,90.50
2022-11-30T21:39:06.088Z,92.40
2022-11-30T21:41:35.433Z,90.30
2022-11-30T21:44:03.108Z,90.70
2022-11-30T21:46:30.138Z,91.00
2022-11-30T21:48:57.055Z,91.00
2022-11-30T21:51:25.866Z,90.60
2022-11-30T21:53:57.331Z,90.10
2022-11-30T21:56:27.374Z,89.30
2022-11-30T21:58:54.403Z,90.50
2022-11-30T22:01:33.824Z,89.30
2022-11-30T22:04:02.563Z,89.20
2022-11-30T22:06:30.724Z,87.90
2022-11-30T22:09:08.169Z,89.50
2022-11-30T22:11:41.121Z,88.40
2022-11-30T22:14:11.915Z,88.60
2022-11-30T22:16:38.943Z,86.90
2022-11-30T22:19:07.366Z,88.40
2022-11-30T22:21:35.052Z,85.20
2022-11-30T22:24:04.255Z,85.70
2022-11-30T22:26:39.509Z,88.00
2022-11-30T22:29:20.521Z,87.00
2022-11-30T22:31:49.484Z,87.10
2022-11-30T22:34:16.450Z,88.10
2022-11-30T22:36:44.379Z,88.60
2022-11-30T22:39:12.615Z,87.90
2022-11-30T22:41:40.434Z,83.70
2022-11-30T22:44:07.590Z,85.00
2022-11-30T22:46:35.741Z,84.70
2022-11-30T22:49:04.975Z,85.70
2022-11-30T22:51:33.172Z,87.30
2022-11-30T22:54:01.108Z,87.00
2022-11-30T22:56:41.571Z,88.40
2022-11-30T22:59:10.905Z,88.50
2022-11-30T23:01:41.687Z,87.90
2022-11-30T23:04:11.123Z,88.20
2022-11-30T23:06:39.068Z,88.80
2022-11-30T23:09:10.402Z,87.30
2022-11-30T23:11:37.186Z,87.80
2022-11-30T23:14:06.081Z,88.20
2022-11-30T23:16:32.835Z,88.80
2022-11-30T23:19:00.549Z,88.10
2022-11-30T23:21:42.281Z,88.90
2022-11-30T23:24:15.541Z,88.80
2022-11-30T23:26:42.997Z,88.50
2022-11-30T23:29:12.094Z,87.90
2022-11-30T23:31:40.985Z,87.60
2022-11-30T23:34:10.692Z,87.60
2022-11-30T23:36:37.722Z,89.60
2022-11-30T23:39:07.106Z,88.70
2022-11-30T23:41:33.878Z,88.50
2022-11-30T23:44:01.139Z,89.10
2022-11-30T23:46:28.118Z,88.20
2022-11-30T23:48:55.812Z,88.50
2022-11-30T23:51:23.427Z,88.00
2022-11-30T23:53:50.306Z,87.50
2022-11-30T23:56:18.519Z,87.40
2022-11-30T23:58:45.670Z,87.90
